createdAt,value
2019-02-24T00:01:35.482Z,13.03
2019-02-24T00:04:14.408Z,11.50
2019-02-24T00:06:42.019Z,12.83
2019-02-24T00:09:22.028Z,13.50
2019-02-24T00:12:02.277Z,13.03
2019-02-24T00:14:45.074Z,13.27
2019-02-24T00:17:14.729Z,12.50
2019-02-24T00:19:55.096Z,12.70
2019-02-24T00:22:27.757Z,14.17
2019-02-24T00:25:09.646Z,13.23
2019-02-24T00:27:51.668Z,11.13
2019-02-24T00:30:44.928Z,12.57
2019-02-24T00:33:21.551Z,11.87
2019-02-24T00:36:09.199Z,13.30
2019-02-24T00:38:43.242Z,11.17
2019-02-24T00:41:15.927Z,13.20
2019-02-24T00:43:57.191Z,12.93
2019-02-24T00:46:37.104Z,12.57
2019-02-24T00:49:13.160Z,12.80
2019-02-24T00:51:55.178Z,12.73
2019-02-24T00:54:52.185Z,13.47
2019-02-24T00:57:09.617Z,14.10
2019-02-24T00:59:43.690Z,13.77
2019-02-24T01:02:17.443Z,11.83
2019-02-24T01:05:09.562Z,13.67
2019-02-24T01:07:52.806Z,13.97
2019-02-24T01:10:35.111Z,14.10
2019-02-24T01:13:15.282Z,14.03
2019-02-24T01:15:55.129Z,13.53
2019-02-24T01:18:45.355Z,14.00
2019-02-24T01:21:22.286Z,14.47
2019-02-24T01:24:01.317Z,14.07
2019-02-24T01:26:37.376Z,12.70
2019-02-24T01:29:18.654Z,13.87
2019-02-24T01:31:48.315Z,14.47
2019-02-24T01:34:20.310Z,14.40
2019-02-24T01:36:55.607Z,15.87
2019-02-24T01:39:45.861Z,14.53
2019-02-24T01:42:24.211Z,14.10
2019-02-24T01:45:03.301Z,13.27
2019-02-24T01:47:46.028Z,13.47
2019-02-24T01:50:17.340Z,14.10
2019-02-24T01:52:52.819Z,14.70
2019-02-24T01:55:33.118Z,15.00
2019-02-24T01:58:04.312Z,14.43
2019-02-24T02:00:42.523Z,15.73
2019-02-24T02:03:15.256Z,12.73
2019-02-24T02:05:48.525Z,14.17
2019-02-24T02:08:23.899Z,13.90
2019-02-24T02:11:02.386Z,14.90
2019-02-24T02:13:38.081Z,14.33
2019-02-24T02:16:20.352Z,14.30
2019-02-24T02:18:56.167Z,14.63
2019-02-24T02:21:27.206Z,14.67
2019-02-24T02:24:19.853Z,14.60
2019-02-24T02:26:55.250Z,14.13
2019-02-24T02:29:26.748Z,14.27
2019-02-24T02:32:12.846Z,14.10
2019-02-24T02:34:46.653Z,14.73
2019-02-24T02:37:23.981Z,14.93
2019-02-24T02:40:01.507Z,14.63
2019-02-24T02:42:46.292Z,14.50
2019-02-24T02:45:26.321Z,12.93
2019-02-24T02:48:10.027Z,15.37
2019-02-24T02:50:50.878Z,14.03
2019-02-24T02:53:39.971Z,14.33
2019-02-24T02:56:19.986Z,15.43
2019-02-24T02:58:57.566Z,13.77
2019-02-24T03:01:33.832Z,14.97
2019-02-24T03:04:16.658Z,15.40
2019-02-24T03:06:48.250Z,15.23
2019-02-24T03:09:26.891Z,16.27
2019-02-24T03:12:16.717Z,15.97
2019-02-24T03:14:58.003Z,15.17
2019-02-24T03:17:32.707Z,15.03
2019-02-24T03:20:13.427Z,16.03
2019-02-24T03:22:55.992Z,16.30
2019-02-24T03:25:35.785Z,15.50
2019-02-24T03:28:16.399Z,14.93
2019-02-24T03:30:47.684Z,15.60
2019-02-24T03:33:30.625Z,16.17
2019-02-24T03:36:08.245Z,16.47
2019-02-24T03:38:39.408Z,15.57
2019-02-24T03:41:09.240Z,15.80
2019-02-24T03:43:40.924Z,15.47
2019-02-24T03:46:18.059Z,16.47
2019-02-24T03:48:52.138Z,16.50
2019-02-24T03:51:24.392Z,16.80
2019-02-24T03:54:03.170Z,16.63
2019-02-24T03:56:37.319Z,15.07
2019-02-24T03:59:15.283Z,15.47
2019-02-24T04:01:46.231Z,15.30
2019-02-24T04:04:26.524Z,16.27
2019-02-24T04:07:05.253Z,16.43
2019-02-24T04:09:34.798Z,15.37
2019-02-24T04:12:07.524Z,15.47
2019-02-24T04:14:46.154Z,15.73
2019-02-24T04:17:27.360Z,16.20
2019-02-24T04:20:03.014Z,15.83
2019-02-24T04:22:38.736Z,16.77
2019-02-24T04:25:11.665Z,15.60
2019-02-24T04:27:45.976Z,17.03
2019-02-24T04:30:21.474Z,16.20
2019-02-24T04:33:00.515Z,15.37
2019-02-24T04:35:39.339Z,16.87
2019-02-24T04:38:15.972Z,17.37
2019-02-24T04:40:51.443Z,15.77
2019-02-24T04:43:30.450Z,16.17
2019-02-24T04:46:05.981Z,15.70
2019-02-24T04:48:42.171Z,16.73
2019-02-24T04:51:26.277Z,15.90
2019-02-24T04:53:56.196Z,15.40
2019-02-24T04:56:27.529Z,15.10
2019-02-24T04:59:04.614Z,15.27
2019-02-24T05:01:35.817Z,15.93
2019-02-24T05:04:11.080Z,15.37
2019-02-24T05:06:39.965Z,16.00
2019-02-24T05:09:15.906Z,16.40
2019-02-24T05:11:51.873Z,16.10
2019-02-24T05:14:46.874Z,15.87
2019-02-24T05:20:02.478Z,16.03
2019-02-24T05:22:50.021Z,15.73
2019-02-24T05:25:29.460Z,15.90
2019-02-24T05:28:05.095Z,16.10
2019-02-24T05:30:43.384Z,15.63
2019-02-24T05:33:23.115Z,14.50
2019-02-24T05:35:56.408Z,14.60
2019-02-24T05:38:30.362Z,15.83
2019-02-24T05:41:06.401Z,14.13
2019-02-24T05:43:41.272Z,14.97
2019-02-24T05:46:20.165Z,13.83
2019-02-24T05:48:52.388Z,16.17
2019-02-24T05:51:29.530Z,13.73
2019-02-24T05:54:06.598Z,15.27
2019-02-24T05:56:49.173Z,15.27
2019-02-24T06:02:00.826Z,13.97
2019-02-24T06:04:33.855Z,15.53
2019-02-24T06:07:08.694Z,13.37
2019-02-24T06:09:41.006Z,14.93
2019-02-24T06:12:25.546Z,13.93
2019-02-24T06:14:58.480Z,13.13
2019-02-24T06:17:43.853Z,15.83
2019-02-24T06:20:28.238Z,15.57
2019-02-24T06:23:02.699Z,13.00
2019-02-24T06:25:44.732Z,15.23
2019-02-24T06:28:18.193Z,12.20
2019-02-24T06:30:51.299Z,13.63
2019-02-24T06:33:22.637Z,14.83
2019-02-24T06:36:00.037Z,14.20
2019-02-24T06:38:34.240Z,12.83
2019-02-24T06:41:12.378Z,15.00
2019-02-24T06:43:47.945Z,12.90
2019-02-24T06:46:26.496Z,11.93
2019-02-24T06:49:03.074Z,14.77
2019-02-24T06:51:43.992Z,14.47
2019-02-24T06:54:20.885Z,15.63
2019-02-24T06:57:01.135Z,15.43
2019-02-24T06:59:38.429Z,14.93
2019-02-24T07:02:20.695Z,16.67
2019-02-24T07:05:02.429Z,15.20
2019-02-24T07:07:42.830Z,13.73
2019-02-24T07:10:16.747Z,14.47
2019-02-24T07:12:46.399Z,17.23
2019-02-24T07:15:18.678Z,15.43
2019-02-24T07:18:04.901Z,15.63
2019-02-24T07:20:45.337Z,14.93
2019-02-24T07:23:20.359Z,14.40
2019-02-24T07:25:59.225Z,14.30
2019-02-24T07:28:34.310Z,14.90
2019-02-24T07:31:11.840Z,13.50
2019-02-24T07:33:44.585Z,13.83
2019-02-24T07:36:20.084Z,13.40
2019-02-24T07:39:08.219Z,14.93
2019-02-24T07:41:41.270Z,16.00
2019-02-24T07:44:14.624Z,14.80
2019-02-24T07:46:47.611Z,14.27
2019-02-24T07:49:16.088Z,14.37
2019-02-24T07:51:47.472Z,15.20
2019-02-24T07:54:22.166Z,15.00
2019-02-24T07:57:06.505Z,15.03
2019-02-24T07:59:50.096Z,15.70
2019-02-24T08:02:22.515Z,15.27
2019-02-24T08:05:03.055Z,14.73
2019-02-24T08:07:43.878Z,14.80
2019-02-24T08:10:21.923Z,15.67
2019-02-24T08:13:04.957Z,16.83
2019-02-24T08:15:43.061Z,17.77
2019-02-24T08:18:12.656Z,17.10
2019-02-24T08:20:51.399Z,16.23
2019-02-24T08:23:45.263Z,17.40
2019-02-24T08:26:26.237Z,17.20
2019-02-24T08:28:57.674Z,16.90
2019-02-24T08:31:32.717Z,15.77
2019-02-24T08:34:05.859Z,19.80
2019-02-24T08:36:40.633Z,15.73
2019-02-24T08:39:17.065Z,15.73
2019-02-24T08:41:53.798Z,15.93
2019-02-24T08:44:27.859Z,15.57
2019-02-24T08:47:02.929Z,15.23
2019-02-24T08:49:35.035Z,17.27
2019-02-24T08:52:08.215Z,15.30
2019-02-24T08:54:47.984Z,16.17
2019-02-24T08:57:20.810Z,16.57
2019-02-24T09:03:26.635Z,14.13
2019-02-24T09:06:09.967Z,16.17
2019-02-24T09:08:44.537Z,17.03
2019-02-24T09:11:25.360Z,16.10
2019-02-24T09:14:07.473Z,15.93
2019-02-24T09:16:42.716Z,15.40
2019-02-24T09:19:23.066Z,17.53
2019-02-24T09:22:01.989Z,16.30
2019-02-24T09:24:30.772Z,16.17
2019-02-24T09:27:02.924Z,17.03
2019-02-24T09:29:39.698Z,16.07
2019-02-24T09:32:18.155Z,15.97
2019-02-24T09:34:57.622Z,16.40
2019-02-24T09:37:32.921Z,15.83
2019-02-24T09:40:22.105Z,15.20
2019-02-24T09:42:52.806Z,14.27
2019-02-24T09:48:32.798Z,14.63
2019-02-24T09:51:02.396Z,15.50
2019-02-24T09:56:39.289Z,14.90
2019-02-24T09:59:13.914Z,14.07
2019-02-24T10:01:49.320Z,14.20
2019-02-24T10:04:23.675Z,14.93
2019-02-24T10:07:00.408Z,14.83
2019-02-24T10:09:36.658Z,15.27
2019-02-24T10:12:09.456Z,14.70
2019-02-24T10:14:49.167Z,16.03
2019-02-24T10:17:28.710Z,14.70
2019-02-24T10:20:10.734Z,15.13
2019-02-24T10:22:45.300Z,15.10
2019-02-24T10:25:18.177Z,15.73
2019-02-24T10:27:55.791Z,16.03
2019-02-24T10:30:30.113Z,15.43
2019-02-24T10:33:06.044Z,15.07
2019-02-24T10:35:50.654Z,15.20
2019-02-24T10:38:32.979Z,15.53
2019-02-24T10:41:08.053Z,15.20
2019-02-24T10:43:41.129Z,14.10
2019-02-24T10:46:22.959Z,13.63
2019-02-24T10:49:03.917Z,14.87
2019-02-24T10:51:53.155Z,13.23
2019-02-24T10:54:28.934Z,12.40
2019-02-24T10:57:14.466Z,13.77
2019-02-24T10:59:49.193Z,12.80
2019-02-24T11:02:23.920Z,12.30
2019-02-24T11:05:04.448Z,11.73
2019-02-24T11:07:37.318Z,12.40
2019-02-24T11:10:15.980Z,12.87
2019-02-24T11:12:55.336Z,11.13
2019-02-24T11:15:30.545Z,11.77
2019-02-24T11:18:03.227Z,11.70
2019-02-24T11:20:52.207Z,11.53
2019-02-24T11:23:33.268Z,11.63
2019-02-24T11:26:14.955Z,11.00
2019-02-24T11:28:53.586Z,11.27
2019-02-24T11:31:38.137Z,11.70
2019-02-24T11:34:07.266Z,11.47
2019-02-24T11:36:40.007Z,10.60
2019-02-24T11:39:18.156Z,10.67
2019-02-24T11:41:54.038Z,10.33
2019-02-24T11:44:37.258Z,10.33
2019-02-24T11:47:06.865Z,9.60
2019-02-24T11:49:50.301Z,9.80
2019-02-24T11:52:27.277Z,10.43
2019-02-24T11:55:01.604Z,7.90
2019-02-24T11:57:38.233Z,8.07
2019-02-24T12:00:27.960Z,8.70
2019-02-24T12:03:06.683Z,8.10
2019-02-24T12:05:57.838Z,8.27
2019-02-24T12:08:32.662Z,8.37
2019-02-24T12:11:07.694Z,7.90
2019-02-24T12:13:39.036Z,8.40
2019-02-24T12:16:21.819Z,6.70
2019-02-24T12:18:59.977Z,7.23
2019-02-24T12:21:31.375Z,7.13
2019-02-24T12:24:04.054Z,7.90
2019-02-24T12:29:31.474Z,7.70
2019-02-24T12:32:15.643Z,7.57
2019-02-24T12:34:45.199Z,6.87
2019-02-24T12:37:29.628Z,7.77
2019-02-24T12:40:18.665Z,7.70
2019-02-24T12:42:55.644Z,7.30
2019-02-24T12:45:29.485Z,6.90
2019-02-24T12:48:00.450Z,6.30
2019-02-24T12:50:35.753Z,7.47
2019-02-24T12:53:08.590Z,5.93
2019-02-24T12:55:50.954Z,5.80
2019-02-24T12:58:25.048Z,5.50
2019-02-24T13:01:05.583Z,4.30
2019-02-24T13:03:59.636Z,3.93
2019-02-24T13:06:32.478Z,3.60
2019-02-24T13:09:07.007Z,4.77
2019-02-24T13:11:37.604Z,5.93
2019-02-24T13:14:12.082Z,5.07
2019-02-24T13:16:48.488Z,7.50
2019-02-24T13:19:21.269Z,8.80
2019-02-24T13:21:55.283Z,7.93
2019-02-24T13:24:24.934Z,8.13
2019-02-24T13:27:00.747Z,9.80
2019-02-24T13:29:39.343Z,8.40
2019-02-24T13:32:15.076Z,7.83
2019-02-24T13:35:03.761Z,8.07
2019-02-24T13:37:36.952Z,8.57
2019-02-24T13:40:24.407Z,8.00
2019-02-24T13:42:57.632Z,7.27
2019-02-24T13:45:43.984Z,7.63
2019-02-24T13:48:18.507Z,6.97
2019-02-24T13:50:54.504Z,6.27
2019-02-24T13:53:42.366Z,6.80
2019-02-24T13:56:17.823Z,7.03
2019-02-24T13:58:51.642Z,5.90
2019-02-24T14:01:27.719Z,6.23
2019-02-24T14:04:11.311Z,6.77
2019-02-24T14:06:50.200Z,6.13
2019-02-24T14:10:02.073Z,6.13
2019-02-24T14:12:25.381Z,5.30
2019-02-24T14:15:01.647Z,6.10
2019-02-24T14:17:36.857Z,5.73
2019-02-24T14:20:11.192Z,4.93
2019-02-24T14:22:52.851Z,5.37
2019-02-24T14:25:25.754Z,5.60
2019-02-24T14:28:03.875Z,5.87
2019-02-24T14:30:42.682Z,6.20
2019-02-24T14:33:13.989Z,5.53
2019-02-24T14:35:48.739Z,5.60
2019-02-24T14:38:28.260Z,5.53
2019-02-24T14:41:08.947Z,5.60
2019-02-24T14:43:38.272Z,5.30
2019-02-24T14:46:16.093Z,5.77
2019-02-24T14:48:47.271Z,5.00
2019-02-24T14:51:21.812Z,5.43
2019-02-24T14:53:53.606Z,6.83
2019-02-24T14:56:42.826Z,6.20
2019-02-24T14:59:27.960Z,6.00
2019-02-24T15:02:05.180Z,6.40
2019-02-24T15:04:46.300Z,6.30
2019-02-24T15:07:27.482Z,6.73
2019-02-24T15:09:56.970Z,7.20
2019-02-24T15:12:26.479Z,6.57
2019-02-24T15:14:55.958Z,6.20
2019-02-24T15:17:26.284Z,6.57
2019-02-24T15:19:55.796Z,6.20
2019-02-24T15:22:25.282Z,5.80
2019-02-24T15:24:54.747Z,6.10
2019-02-24T15:27:24.242Z,6.40
2019-02-24T15:29:53.894Z,5.40
2019-02-24T15:32:23.355Z,5.70
2019-02-24T15:34:52.827Z,5.40
2019-02-24T15:37:22.288Z,5.93
2019-02-24T15:39:51.838Z,5.90
2019-02-24T15:42:21.359Z,5.20
2019-02-24T15:44:50.814Z,5.60
2019-02-24T15:47:20.317Z,5.73
2019-02-24T15:49:50.348Z,5.53
2019-02-24T15:52:19.909Z,5.40
2019-02-24T15:54:49.616Z,5.50
2019-02-24T15:57:19.994Z,6.20
2019-02-24T15:59:49.806Z,5.80
2019-02-24T16:02:19.267Z,6.20
2019-02-24T16:04:48.761Z,5.47
2019-02-24T16:07:18.527Z,5.17
2019-02-24T16:09:47.983Z,5.10
2019-02-24T16:12:17.448Z,5.33
2019-02-24T16:14:46.971Z,5.43
2019-02-24T16:17:16.450Z,5.23
2019-02-24T16:19:45.970Z,5.10
2019-02-24T16:22:15.461Z,6.73
2019-02-24T16:24:45.295Z,5.70
2019-02-24T16:27:14.766Z,5.90
2019-02-24T16:29:44.500Z,6.87
2019-02-24T16:32:13.995Z,5.63
2019-02-24T16:34:43.624Z,5.90
2019-02-24T16:37:13.091Z,5.93
2019-02-24T16:39:42.544Z,6.27
2019-02-24T16:42:12.327Z,6.50
2019-02-24T16:44:41.793Z,6.80
2019-02-24T16:47:11.256Z,6.83
2019-02-24T16:49:40.775Z,6.00
2019-02-24T16:52:10.498Z,6.03
2019-02-24T16:54:40.002Z,6.73
2019-02-24T16:57:09.468Z,6.47
2019-02-24T16:59:39.138Z,6.37
2019-02-24T17:02:08.645Z,7.80
2019-02-24T17:04:38.108Z,7.80
2019-02-24T17:07:07.578Z,7.77
2019-02-24T17:09:37.027Z,8.20
2019-02-24T17:12:06.553Z,7.47
2019-02-24T17:14:36.038Z,7.43
2019-02-24T17:17:05.826Z,7.53
2019-02-24T17:19:35.293Z,7.13
2019-02-24T17:22:05.156Z,7.13
2019-02-24T17:24:35.069Z,7.37
2019-02-24T17:27:04.746Z,6.30
2019-02-24T17:29:34.221Z,6.20
2019-02-24T17:32:04.228Z,6.00
2019-02-24T17:34:33.753Z,7.10
2019-02-24T17:37:03.282Z,6.50
2019-02-24T17:39:32.750Z,6.97
2019-02-24T17:42:02.216Z,7.83
2019-02-24T17:44:32.039Z,8.57
2019-02-24T17:47:01.490Z,9.03
2019-02-24T17:49:31.283Z,9.77
2019-02-24T17:52:00.755Z,9.73
2019-02-24T17:54:30.589Z,8.97
2019-02-24T17:57:00.215Z,9.60
2019-02-24T17:59:29.683Z,9.03
2019-02-24T18:01:59.381Z,8.57
2019-02-24T18:04:28.863Z,9.67
2019-02-24T18:06:58.318Z,9.20
2019-02-24T18:09:27.789Z,9.33
2019-02-24T18:11:57.257Z,9.80
2019-02-24T18:14:26.729Z,9.30
2019-02-24T18:16:56.462Z,10.23
2019-02-24T18:19:25.947Z,10.13
2019-02-24T18:21:55.422Z,11.57
2019-02-24T18:24:24.946Z,12.73
2019-02-24T18:26:54.817Z,13.70
2019-02-24T18:29:24.299Z,14.00
2019-02-24T18:31:53.847Z,14.93
2019-02-24T18:34:23.735Z,15.37
2019-02-24T18:36:53.175Z,14.57
2019-02-24T18:39:22.711Z,16.70
2019-02-24T18:41:52.175Z,23.07
2019-02-24T18:44:21.752Z,21.90
2019-02-24T18:46:51.215Z,21.97
2019-02-24T18:49:20.690Z,20.60
2019-02-24T18:51:50.158Z,18.63
2019-02-24T18:54:19.642Z,17.43
2019-02-24T18:56:49.102Z,28.23
2019-02-24T18:59:18.966Z,32.70
2019-02-24T19:01:48.430Z,30.40
2019-02-24T19:04:18.272Z,21.93
2019-02-24T19:06:47.739Z,24.43
2019-02-24T19:09:17.201Z,20.13
2019-02-24T19:11:46.656Z,15.53
2019-02-24T19:14:16.496Z,12.10
2019-02-24T19:16:45.979Z,10.70
2019-02-24T19:19:15.717Z,10.87
2019-02-24T19:21:45.548Z,10.67
2019-02-24T19:24:15.085Z,9.63
2019-02-24T19:26:44.543Z,10.10
2019-02-24T19:29:14.034Z,9.73
2019-02-24T19:31:43.850Z,10.83
2019-02-24T19:34:13.334Z,10.70
2019-02-24T19:36:42.839Z,10.63
2019-02-24T19:39:14.516Z,10.40
2019-02-24T19:41:43.983Z,11.90
2019-02-24T19:44:13.712Z,10.40
2019-02-24T19:46:43.172Z,10.70
2019-02-24T19:49:12.651Z,11.73
2019-02-24T19:51:42.116Z,12.43
2019-02-24T19:54:11.864Z,11.57
2019-02-24T19:56:41.322Z,12.20
2019-02-24T19:59:10.798Z,12.83
2019-02-24T20:01:40.256Z,12.87
2019-02-24T20:04:15.723Z,11.73
2019-02-24T20:06:40.899Z,13.43
2019-02-24T20:09:10.626Z,13.20
2019-02-24T20:11:40.152Z,13.33
2019-02-24T20:14:09.663Z,11.83
2019-02-24T20:16:39.126Z,12.77
2019-02-24T20:19:08.619Z,13.67
2019-02-24T20:21:38.375Z,13.13
2019-02-24T20:24:08.205Z,13.60
2019-02-24T20:26:37.658Z,13.97
2019-02-24T20:29:07.150Z,12.63
2019-02-24T20:31:36.609Z,12.50
2019-02-24T20:34:06.086Z,13.77
2019-02-24T20:36:35.543Z,13.97
2019-02-24T20:39:05.837Z,16.03
2019-02-24T20:41:35.546Z,13.47
2019-02-24T20:44:05.288Z,14.77
2019-02-24T20:46:34.762Z,14.37
2019-02-24T20:49:04.228Z,15.10
2019-02-24T20:51:33.734Z,13.67
2019-02-24T20:54:03.213Z,13.67
2019-02-24T20:56:32.678Z,13.97
2019-02-24T20:59:02.164Z,16.90
2019-02-24T21:01:31.814Z,13.80
2019-02-24T21:04:01.270Z,16.73
2019-02-24T21:06:30.744Z,14.37
2019-02-24T21:09:00.266Z,14.87
2019-02-24T21:11:29.734Z,15.23
2019-02-24T21:13:59.216Z,14.67
2019-02-24T21:16:29.038Z,15.27
2019-02-24T21:18:58.503Z,17.03
2019-02-24T21:21:27.978Z,14.67
2019-02-24T21:23:57.485Z,16.03
2019-02-24T21:26:26.965Z,15.40
2019-02-24T21:28:56.416Z,15.67
2019-02-24T21:31:25.875Z,16.37
2019-02-24T21:33:55.345Z,15.80
2019-02-24T21:36:24.801Z,15.80
2019-02-24T21:38:54.290Z,15.37
2019-02-24T21:41:24.014Z,15.43
2019-02-24T21:43:53.469Z,14.23
2019-02-24T21:46:22.937Z,14.53
2019-02-24T21:48:52.438Z,15.03
2019-02-24T21:51:22.224Z,14.37
2019-02-24T21:53:51.679Z,14.90
2019-02-24T21:56:21.168Z,14.27
2019-02-24T21:58:50.659Z,14.43
2019-02-24T22:01:20.450Z,14.60
2019-02-24T22:03:51.511Z,13.87
2019-02-24T22:06:21.055Z,13.70
2019-02-24T22:08:54.367Z,12.97
2019-02-24T22:11:23.841Z,16.37
2019-02-24T22:13:53.300Z,13.07
2019-02-24T22:16:23.120Z,13.40
2019-02-24T22:18:52.934Z,13.40
2019-02-24T22:21:22.685Z,14.07
2019-02-24T22:23:52.313Z,12.70
2019-02-24T22:26:21.791Z,13.20
2019-02-24T22:28:51.246Z,13.23
2019-02-24T22:31:20.731Z,12.80
2019-02-24T22:33:50.188Z,13.33
2019-02-24T22:36:20.041Z,13.80
2019-02-24T22:38:49.499Z,13.73
2019-02-24T22:41:18.981Z,13.70
2019-02-24T22:43:48.453Z,14.00
2019-02-24T22:46:17.925Z,13.47
2019-02-24T22:48:47.822Z,13.40
2019-02-24T22:51:17.303Z,12.93
2019-02-24T22:53:46.766Z,13.37
2019-02-24T22:56:16.262Z,14.23
2019-02-24T22:58:46.052Z,12.93
2019-02-24T23:01:18.630Z,14.80
2019-02-24T23:03:48.163Z,13.97
2019-02-24T23:06:17.947Z,13.73
2019-02-24T23:08:47.410Z,13.63
2019-02-24T23:11:16.878Z,13.63
2019-02-24T23:13:46.338Z,13.57
2019-02-24T23:16:15.808Z,13.27
2019-02-24T23:18:45.343Z,14.00
2019-02-24T23:21:14.822Z,12.80
2019-02-24T23:23:44.281Z,13.57
2019-02-24T23:26:14.112Z,13.37
2019-02-24T23:28:43.573Z,13.10
2019-02-24T23:31:13.168Z,13.50
2019-02-24T23:33:42.901Z,15.93
2019-02-24T23:36:12.491Z,14.17
2019-02-24T23:38:42.006Z,12.33
2019-02-24T23:41:11.461Z,13.93
2019-02-24T23:43:40.928Z,14.73
2019-02-24T23:46:10.572Z,15.23
2019-02-24T23:48:40.036Z,12.70
2019-02-24T23:51:09.527Z,13.30
2019-02-24T23:53:39.011Z,15.00
2019-02-24T23:56:08.495Z,12.90
2019-02-24T23:58:38.004Z,13.57
